createdAt,value
2018-02-05T00:00:09.150Z,2.93
2018-02-05T00:01:09.176Z,2.97
2018-02-05T00:02:09.192Z,2.94
2018-02-05T00:03:09.216Z,2.93
2018-02-05T00:04:09.240Z,2.90
2018-02-05T00:05:09.257Z,2.88
2018-02-05T00:06:09.284Z,2.93
2018-02-05T00:07:09.294Z,2.93
2018-02-05T00:08:09.322Z,3.01
2018-02-05T00:09:09.339Z,3.00
2018-02-05T00:10:09.355Z,3.05
2018-02-05T00:11:09.374Z,2.98
2018-02-05T00:12:09.392Z,2.94
2018-02-05T00:13:09.413Z,2.91
2018-02-05T00:14:09.428Z,2.87
2018-02-05T00:15:09.451Z,2.85
2018-02-05T00:16:09.475Z,2.87
2018-02-05T00:17:09.495Z,2.94
2018-02-05T00:18:09.514Z,2.91
2018-02-05T00:19:09.531Z,2.91
2018-02-05T00:20:09.549Z,2.88
2018-02-05T00:21:09.569Z,2.94
2018-02-05T00:22:09.586Z,2.93
2018-02-05T00:23:09.606Z,2.93
2018-02-05T00:24:09.623Z,2.75
2018-02-05T00:25:09.647Z,2.87
2018-02-05T00:26:09.667Z,2.80
2018-02-05T00:27:09.692Z,2.82
2018-02-05T00:28:09.705Z,2.87
2018-02-05T00:29:09.727Z,2.76
2018-02-05T00:30:09.744Z,2.80
2018-02-05T00:31:09.765Z,2.80
2018-02-05T00:32:09.785Z,2.83
2018-02-05T00:33:09.813Z,2.79
2018-02-05T00:34:09.832Z,2.82
2018-02-05T00:35:09.848Z,2.85
2018-02-05T00:36:09.878Z,2.79
2018-02-05T00:37:09.888Z,2.79
2018-02-05T00:38:09.910Z,2.77
2018-02-05T00:39:09.928Z,2.72
2018-02-05T00:40:09.959Z,2.79
2018-02-05T00:41:09.961Z,2.79
2018-02-05T00:42:09.981Z,2.80
2018-02-05T00:43:10.007Z,2.80
2018-02-05T00:44:10.025Z,2.75
2018-02-05T00:45:10.045Z,2.80
2018-02-05T00:46:10.065Z,2.80
2018-02-05T00:47:10.648Z,2.80
2018-02-05T00:48:10.105Z,2.90
2018-02-05T00:49:10.125Z,2.85
2018-02-05T00:50:10.141Z,2.93
2018-02-05T00:51:10.183Z,2.83
2018-02-05T00:52:10.177Z,2.93
2018-02-05T00:53:10.203Z,2.94
2018-02-05T00:54:10.228Z,2.91
2018-02-05T00:55:10.242Z,2.97
2018-02-05T00:56:10.273Z,2.91
2018-02-05T00:57:10.276Z,2.91
2018-02-05T00:58:10.298Z,2.91
2018-02-05T00:59:10.322Z,2.94
2018-02-05T01:00:10.401Z,2.97
2018-02-05T01:01:10.354Z,2.95
2018-02-05T01:02:10.385Z,2.82
2018-02-05T01:03:10.394Z,2.93
2018-02-05T01:04:10.423Z,2.97
2018-02-05T01:05:10.441Z,2.91
2018-02-05T01:06:10.457Z,2.90
2018-02-05T01:07:10.478Z,2.90
2018-02-05T01:08:10.502Z,2.88
2018-02-05T01:09:10.526Z,2.91
2018-02-05T01:10:10.533Z,2.82
2018-02-05T01:11:10.549Z,2.87
2018-02-05T01:12:10.573Z,2.79
2018-02-05T01:13:10.602Z,2.75
2018-02-05T01:14:10.609Z,2.87
2018-02-05T01:15:10.633Z,2.87
2018-02-05T01:16:10.656Z,2.83
2018-02-05T01:17:10.677Z,2.85
2018-02-05T01:18:10.688Z,2.80
2018-02-05T01:19:10.707Z,2.77
2018-02-05T01:20:10.733Z,2.83
2018-02-05T01:21:10.752Z,2.83
2018-02-05T01:22:10.770Z,2.83
2018-02-05T01:23:10.792Z,2.88
2018-02-05T01:24:10.804Z,2.90
2018-02-05T01:25:10.834Z,2.93
2018-02-05T01:26:10.851Z,2.85
2018-02-05T01:27:10.864Z,2.90
2018-02-05T01:28:10.906Z,3.00
2018-02-05T01:29:10.912Z,2.93
2018-02-05T01:30:10.926Z,2.93
2018-02-05T01:31:10.954Z,2.91
2018-02-05T01:32:10.966Z,2.91
2018-02-05T01:33:10.982Z,3.00
2018-02-05T01:34:11.015Z,3.00
2018-02-05T01:35:11.024Z,2.93
2018-02-05T01:36:11.061Z,2.91
2018-02-05T01:37:11.068Z,2.93
2018-02-05T01:38:11.127Z,2.95
2018-02-05T01:39:11.111Z,2.97
2018-02-05T01:40:11.127Z,3.01
2018-02-05T01:41:11.149Z,2.93
2018-02-05T01:42:11.159Z,2.94
2018-02-05T01:43:11.180Z,2.94
2018-02-05T01:44:11.206Z,2.87
2018-02-05T01:45:11.225Z,2.88
2018-02-05T01:46:11.242Z,2.93
2018-02-05T01:47:11.271Z,2.91
2018-02-05T01:48:11.277Z,2.94
2018-02-05T01:49:11.306Z,2.87
2018-02-05T01:50:11.322Z,2.90
2018-02-05T01:51:11.338Z,2.83
2018-02-05T01:52:11.367Z,2.88
2018-02-05T01:53:11.384Z,2.88
2018-02-05T01:54:11.394Z,2.97
2018-02-05T01:55:11.417Z,2.91
2018-02-05T01:56:11.436Z,2.82
2018-02-05T01:57:11.462Z,2.87
2018-02-05T01:58:11.485Z,2.85
2018-02-05T01:59:11.496Z,2.95
2018-02-05T02:00:11.516Z,2.93
2018-02-05T02:01:11.553Z,2.97
2018-02-05T02:02:11.552Z,2.90
2018-02-05T02:03:11.590Z,2.87
2018-02-05T02:04:11.599Z,2.93
2018-02-05T02:05:11.613Z,2.91
2018-02-05T02:06:11.634Z,2.87
2018-02-05T02:07:11.651Z,2.88
2018-02-05T02:08:11.673Z,2.83
2018-02-05T02:09:11.705Z,2.94
2018-02-05T02:10:11.733Z,2.91
2018-02-05T02:11:11.730Z,2.90
2018-02-05T02:12:11.755Z,2.93
2018-02-05T02:13:11.768Z,2.91
2018-02-05T02:14:11.789Z,2.88
2018-02-05T02:15:11.811Z,2.93
2018-02-05T02:16:11.835Z,2.85
2018-02-05T02:17:11.862Z,2.83
2018-02-05T02:18:11.869Z,2.90
2018-02-05T02:19:11.887Z,2.80
2018-02-05T02:20:11.911Z,2.79
2018-02-05T02:21:11.935Z,2.79
2018-02-05T02:22:11.947Z,2.87
2018-02-05T02:23:11.965Z,2.88
2018-02-05T02:24:11.985Z,2.85
2018-02-05T02:25:12.020Z,2.77
2018-02-05T02:26:12.027Z,2.88
2018-02-05T02:27:12.042Z,2.80
2018-02-05T02:28:12.068Z,2.90
2018-02-05T02:29:12.149Z,2.87
2018-02-05T02:30:12.106Z,2.83
2018-02-05T02:31:12.120Z,2.85
2018-02-05T02:32:12.140Z,2.91
2018-02-05T02:33:12.170Z,2.85
2018-02-05T02:34:12.182Z,2.80
2018-02-05T02:35:12.199Z,2.91
2018-02-05T02:36:12.221Z,2.73
2018-02-05T02:37:12.243Z,2.83
2018-02-05T02:38:12.270Z,2.80
2018-02-05T02:39:12.277Z,2.83
2018-02-05T02:40:12.314Z,2.82
2018-02-05T02:41:12.330Z,2.80
2018-02-05T02:42:12.362Z,2.75
2018-02-05T02:43:12.365Z,2.79
2018-02-05T02:44:12.377Z,2.76
2018-02-05T02:45:12.400Z,2.80
2018-02-05T02:46:12.422Z,2.75
2018-02-05T02:47:12.436Z,2.76
2018-02-05T02:48:12.470Z,2.76
2018-02-05T02:49:12.483Z,2.69
2018-02-05T02:50:12.504Z,2.72
2018-02-05T02:51:12.510Z,2.69
2018-02-05T02:52:12.537Z,2.70
2018-02-05T02:53:12.666Z,2.80
2018-02-05T02:54:12.571Z,2.80
2018-02-05T02:55:12.634Z,2.69
2018-02-05T02:56:12.611Z,2.69
2018-02-05T02:57:12.631Z,2.72
2018-02-05T02:58:12.655Z,2.82
2018-02-05T02:59:12.672Z,2.75
2018-02-05T03:00:12.700Z,2.64
2018-02-05T03:01:12.718Z,2.68
2018-02-05T03:02:12.738Z,2.65
2018-02-05T03:03:12.748Z,2.72
2018-02-05T03:04:12.768Z,2.73
2018-02-05T03:05:12.795Z,2.68
2018-02-05T03:06:12.813Z,2.77
2018-02-05T03:07:12.826Z,2.68
2018-02-05T03:08:12.853Z,2.69
2018-02-05T03:09:12.871Z,2.70
2018-02-05T03:10:12.893Z,2.64
2018-02-05T03:11:12.910Z,2.72
2018-02-05T03:12:12.925Z,2.79
2018-02-05T03:13:12.955Z,2.73
2018-02-05T03:14:12.964Z,2.72
2018-02-05T03:15:12.985Z,2.70
2018-02-05T03:16:13.009Z,2.62
2018-02-05T03:17:13.021Z,2.61
2018-02-05T03:18:13.048Z,2.59
2018-02-05T03:19:13.059Z,2.64
2018-02-05T03:20:13.080Z,2.55
2018-02-05T03:21:13.102Z,2.58
2018-02-05T03:22:13.120Z,2.55
2018-02-05T03:23:13.145Z,2.52
2018-02-05T03:24:13.166Z,2.51
2018-02-05T03:25:13.176Z,2.54
2018-02-05T03:26:13.212Z,2.61
2018-02-05T03:27:13.216Z,2.46
2018-02-05T03:28:13.237Z,2.54
2018-02-05T03:29:13.256Z,2.62
2018-02-05T03:30:13.276Z,2.62
2018-02-05T03:31:13.300Z,2.61
2018-02-05T03:32:13.317Z,2.52
2018-02-05T03:33:13.334Z,2.55
2018-02-05T03:34:13.356Z,2.65
2018-02-05T03:35:13.374Z,2.61
2018-02-05T03:36:13.397Z,2.62
2018-02-05T03:37:13.417Z,2.64
2018-02-05T03:38:13.436Z,2.57
2018-02-05T03:39:13.449Z,2.62
2018-02-05T03:40:13.478Z,2.58
2018-02-05T03:41:13.488Z,2.62
2018-02-05T03:42:13.515Z,2.61
2018-02-05T03:43:13.525Z,2.55
2018-02-05T03:44:13.559Z,2.52
2018-02-05T03:45:13.566Z,2.46
2018-02-05T03:46:13.592Z,2.43
2018-02-05T03:47:13.603Z,2.55
2018-02-05T03:48:13.626Z,2.55
2018-02-05T03:49:13.645Z,2.59
2018-02-05T03:50:13.661Z,2.64
2018-02-05T03:51:13.685Z,2.58
2018-02-05T03:52:13.705Z,2.61
2018-02-05T03:53:13.725Z,2.54
2018-02-05T03:54:13.752Z,2.57
2018-02-05T03:55:13.762Z,2.64
2018-02-05T03:56:13.795Z,2.54
2018-02-05T03:57:13.807Z,2.50
2018-02-05T03:58:13.822Z,2.46
2018-02-05T03:59:13.848Z,2.54
2018-02-05T04:00:13.855Z,2.51
2018-02-05T04:01:13.879Z,2.51
2018-02-05T04:02:13.894Z,2.44
2018-02-05T04:03:13.919Z,2.46
2018-02-05T04:04:13.933Z,2.44
2018-02-05T04:05:13.961Z,2.44
2018-02-05T04:06:13.975Z,2.40
2018-02-05T04:07:14.007Z,2.41
2018-02-05T04:08:14.021Z,2.41
2018-02-05T04:09:14.082Z,2.44
2018-02-05T04:10:14.047Z,2.40
2018-02-05T04:11:14.164Z,2.30
2018-02-05T04:12:14.087Z,2.28
2018-02-05T04:13:14.126Z,2.30
2018-02-05T04:14:14.127Z,2.30
2018-02-05T04:15:14.149Z,2.26
2018-02-05T04:16:14.171Z,2.26
2018-02-05T04:17:14.186Z,2.33
2018-02-05T04:18:14.211Z,2.30
2018-02-05T04:19:14.234Z,2.21
2018-02-05T04:20:14.243Z,2.36
2018-02-05T04:21:14.262Z,2.25
2018-02-05T04:22:14.288Z,2.33
2018-02-05T04:23:14.305Z,2.30
2018-02-05T04:24:14.330Z,2.33
2018-02-05T04:25:14.338Z,2.32
2018-02-05T04:26:14.362Z,2.32
2018-02-05T04:27:14.377Z,2.26
2018-02-05T04:28:14.397Z,2.18
2018-02-05T04:29:14.419Z,2.22
2018-02-05T04:30:14.441Z,2.26
2018-02-05T04:31:14.464Z,2.19
2018-02-05T04:32:14.478Z,2.14
2018-02-05T04:33:14.495Z,2.21
2018-02-05T04:34:14.513Z,2.21
2018-02-05T04:35:14.550Z,2.15
2018-02-05T04:36:14.554Z,2.18
2018-02-05T04:37:14.594Z,2.14
2018-02-05T04:38:14.588Z,2.08
2018-02-05T04:39:14.612Z,2.18
2018-02-05T04:40:14.639Z,2.07
2018-02-05T04:41:14.646Z,2.19
2018-02-05T04:42:14.666Z,2.12
2018-02-05T04:43:14.698Z,2.19
2018-02-05T04:44:14.708Z,2.12
2018-02-05T04:45:14.733Z,2.14
2018-02-05T04:46:14.740Z,2.08
2018-02-05T04:47:14.770Z,2.16
2018-02-05T04:48:14.778Z,2.15
2018-02-05T04:49:14.801Z,2.14
2018-02-05T04:50:14.836Z,2.18
2018-02-05T04:51:14.839Z,2.08
2018-02-05T04:52:14.866Z,2.14
2018-02-05T04:53:14.886Z,2.04
2018-02-05T04:54:14.897Z,2.04
2018-02-05T04:55:14.927Z,2.07
2018-02-05T04:56:14.934Z,2.03
2018-02-05T04:57:14.959Z,1.95
2018-02-05T04:58:14.969Z,1.92
2018-02-05T04:59:14.991Z,1.92
2018-02-05T05:00:15.041Z,1.89
2018-02-05T05:01:15.035Z,1.89
2018-02-05T05:02:15.051Z,1.84
2018-02-05T05:03:15.078Z,1.85
2018-02-05T05:04:15.096Z,1.92
2018-02-05T05:05:15.105Z,1.82
2018-02-05T05:06:15.125Z,1.84
2018-02-05T05:07:15.145Z,1.93
2018-02-05T05:08:15.163Z,1.97
2018-02-05T05:09:15.197Z,1.82
2018-02-05T05:10:15.199Z,1.81
2018-02-05T05:11:15.222Z,1.84
2018-02-05T05:12:15.247Z,1.86
2018-02-05T05:13:15.260Z,1.85
2018-02-05T05:14:15.282Z,1.85
2018-02-05T05:15:15.296Z,1.82
2018-02-05T05:16:15.316Z,1.81
2018-02-05T05:17:15.330Z,1.84
2018-02-05T05:18:15.354Z,1.86
2018-02-05T05:19:15.370Z,1.93
2018-02-05T05:20:15.393Z,1.84
2018-02-05T05:21:15.414Z,1.79
2018-02-05T05:22:15.436Z,1.81
2018-02-05T05:23:15.449Z,1.81
2018-02-05T05:24:15.472Z,1.89
2018-02-05T05:25:15.484Z,1.79
2018-02-05T05:26:15.513Z,1.88
2018-02-05T05:27:15.522Z,1.82
2018-02-05T05:28:15.542Z,1.84
2018-02-05T05:29:15.571Z,1.79
2018-02-05T05:30:15.580Z,1.82
2018-02-05T05:31:15.611Z,1.78
2018-02-05T05:32:15.617Z,1.67
2018-02-05T05:33:15.638Z,1.71
2018-02-05T05:34:15.654Z,1.68
2018-02-05T05:35:15.685Z,1.75
2018-02-05T05:36:15.691Z,1.82
2018-02-05T05:37:15.709Z,1.84
2018-02-05T05:38:15.729Z,1.76
2018-02-05T05:39:15.756Z,1.79
2018-02-05T05:40:15.824Z,1.76
2018-02-05T05:41:15.788Z,1.68
2018-02-05T05:42:15.810Z,1.74
2018-02-05T05:43:15.827Z,1.84
2018-02-05T05:44:15.846Z,1.75
2018-02-05T05:45:15.865Z,1.85
2018-02-05T05:46:15.890Z,1.78
2018-02-05T05:47:15.906Z,1.74
2018-02-05T05:48:15.929Z,1.71
2018-02-05T05:49:15.934Z,1.84
2018-02-05T05:50:15.964Z,1.84
2018-02-05T05:51:15.985Z,1.70
2018-02-05T05:52:16.010Z,1.88
2018-02-05T05:53:16.648Z,1.82
2018-02-05T05:54:16.040Z,1.85
2018-02-05T05:55:16.050Z,1.84
2018-02-05T05:56:16.073Z,1.74
2018-02-05T05:57:16.090Z,1.82
2018-02-05T05:58:16.105Z,1.75
2018-02-05T05:59:16.131Z,1.71
2018-02-05T06:00:16.147Z,1.78
2018-02-05T06:01:16.166Z,1.76
2018-02-05T06:02:16.185Z,1.74
2018-02-05T06:03:16.213Z,1.74
2018-02-05T06:04:16.225Z,1.74
2018-02-05T06:05:16.244Z,1.71
2018-02-05T06:06:16.273Z,1.58
2018-02-05T06:07:16.276Z,1.63
2018-02-05T06:08:16.301Z,1.71
2018-02-05T06:09:16.328Z,1.63
2018-02-05T06:10:16.332Z,1.63
2018-02-05T06:11:16.351Z,1.60
2018-02-05T06:12:16.373Z,1.66
2018-02-05T06:13:16.389Z,1.70
2018-02-05T06:14:16.416Z,1.66
2018-02-05T06:15:16.427Z,1.56
2018-02-05T06:16:16.446Z,1.63
2018-02-05T06:17:16.467Z,1.64
2018-02-05T06:18:16.485Z,1.64
2018-02-05T06:19:16.534Z,1.60
2018-02-05T06:20:16.520Z,1.61
2018-02-05T06:21:16.544Z,1.56
2018-02-05T06:22:16.558Z,1.63
2018-02-05T06:23:16.576Z,1.71
2018-02-05T06:24:16.594Z,1.61
2018-02-05T06:25:16.614Z,1.63
2018-02-05T06:26:16.631Z,1.64
2018-02-05T06:27:16.653Z,1.60
2018-02-05T06:28:16.670Z,1.61
2018-02-05T06:29:16.697Z,1.58
2018-02-05T06:30:16.704Z,1.58
2018-02-05T06:31:16.724Z,1.61
2018-02-05T06:32:16.747Z,1.56
2018-02-05T06:33:16.758Z,1.68
2018-02-05T06:34:16.799Z,1.58
2018-02-05T06:35:16.805Z,1.58
2018-02-05T06:36:16.821Z,1.71
2018-02-05T06:37:16.838Z,1.64
2018-02-05T06:38:16.861Z,1.61
2018-02-05T06:39:16.883Z,1.63
2018-02-05T06:40:16.901Z,1.61
2018-02-05T06:41:16.911Z,1.60
2018-02-05T06:42:16.933Z,1.67
2018-02-05T06:43:16.946Z,1.66
2018-02-05T06:44:16.982Z,1.61
2018-02-05T06:45:16.986Z,1.70
2018-02-05T06:46:17.005Z,1.60
2018-02-05T06:47:17.026Z,1.58
2018-02-05T06:48:17.045Z,1.61
2018-02-05T06:49:17.069Z,1.61
2018-02-05T06:50:17.083Z,1.63
2018-02-05T06:51:17.096Z,1.57
2018-02-05T06:52:17.138Z,1.67
2018-02-05T06:53:17.138Z,1.61
2018-02-05T06:54:17.162Z,1.60
2018-02-05T06:55:17.172Z,1.58
2018-02-05T06:56:17.190Z,1.63
2018-02-05T06:57:17.209Z,1.57
2018-02-05T06:58:17.237Z,1.64
2018-02-05T06:59:17.249Z,1.63
2018-02-05T07:00:17.262Z,1.61
2018-02-05T07:01:17.298Z,1.61
2018-02-05T07:02:17.308Z,1.67
2018-02-05T07:03:17.324Z,1.70
2018-02-05T07:04:17.346Z,1.70
2018-02-05T07:05:17.369Z,1.71
2018-02-05T07:06:17.390Z,1.85
2018-02-05T07:07:17.398Z,1.84
2018-02-05T07:08:17.415Z,1.70
2018-02-05T07:09:17.433Z,1.70
2018-02-05T07:10:17.462Z,1.76
2018-02-05T07:11:17.470Z,1.71
2018-02-05T07:12:17.505Z,1.71
2018-02-05T07:13:17.515Z,1.71
2018-02-05T07:14:17.527Z,1.71
2018-02-05T07:15:17.555Z,1.70
2018-02-05T07:16:17.568Z,1.70
2018-02-05T07:17:17.584Z,1.67
2018-02-05T07:18:17.628Z,1.71
2018-02-05T07:19:17.632Z,1.74
2018-02-05T07:20:17.643Z,1.68
2018-02-05T07:21:17.669Z,1.63
2018-02-05T07:22:17.678Z,1.70
2018-02-05T07:23:17.696Z,1.76
2018-02-05T07:24:17.714Z,1.75
2018-02-05T07:25:17.737Z,1.67
2018-02-05T07:26:17.749Z,1.76
2018-02-05T07:27:17.772Z,1.84
2018-02-05T07:28:17.794Z,1.79
2018-02-05T07:29:17.808Z,1.93
2018-02-05T07:30:17.843Z,1.86
2018-02-05T07:31:17.845Z,1.89
2018-02-05T07:32:17.884Z,1.97
2018-02-05T07:33:17.890Z,1.97
2018-02-05T07:34:17.903Z,2.01
2018-02-05T07:35:17.924Z,2.01
2018-02-05T07:36:17.946Z,2.01
2018-02-05T07:37:18.641Z,2.00
2018-02-05T07:38:17.978Z,2.01
2018-02-05T07:39:18.015Z,2.01
2018-02-05T07:40:18.012Z,2.04
2018-02-05T07:41:18.036Z,2.10
2018-02-05T07:42:18.062Z,2.08
2018-02-05T07:43:18.074Z,2.14
2018-02-05T07:44:18.096Z,2.22
2018-02-05T07:45:18.117Z,2.16
2018-02-05T07:46:18.131Z,2.19
2018-02-05T07:47:18.164Z,2.21
2018-02-05T07:48:18.165Z,2.18
2018-02-05T07:49:18.184Z,2.21
2018-02-05T07:50:18.207Z,2.19
2018-02-05T07:51:18.222Z,2.18
2018-02-05T07:52:18.254Z,2.18
2018-02-05T07:53:18.271Z,2.18
2018-02-05T07:54:18.287Z,2.16
2018-02-05T07:55:18.297Z,2.15
2018-02-05T07:56:18.321Z,2.16
2018-02-05T07:57:18.342Z,2.21
2018-02-05T07:58:18.359Z,2.10
2018-02-05T07:59:18.376Z,2.16
2018-02-05T08:00:18.396Z,2.19
2018-02-05T08:01:19.142Z,2.15
2018-02-05T08:02:18.441Z,2.30
2018-02-05T08:03:18.453Z,2.26
2018-02-05T08:04:18.476Z,2.30
2018-02-05T08:05:18.494Z,2.30
2018-02-05T08:06:18.515Z,2.37
2018-02-05T08:07:18.527Z,2.36
2018-02-05T08:08:18.553Z,2.34
2018-02-05T08:09:18.571Z,2.36
2018-02-05T08:10:18.591Z,2.33
2018-02-05T08:11:18.611Z,2.37
2018-02-05T08:12:18.622Z,2.28
2018-02-05T08:13:18.650Z,2.34
2018-02-05T08:14:18.736Z,2.32
2018-02-05T08:15:18.682Z,2.37
2018-02-05T08:16:18.705Z,2.30
2018-02-05T08:17:18.727Z,2.37
2018-02-05T08:18:18.738Z,2.43
2018-02-05T08:19:18.752Z,2.39
2018-02-05T08:20:18.779Z,2.40
2018-02-05T08:21:18.793Z,2.44
2018-02-05T08:22:18.811Z,2.44
2018-02-05T08:23:18.833Z,2.47
2018-02-05T08:24:18.854Z,2.57
2018-02-05T08:25:18.883Z,2.47
2018-02-05T08:26:18.896Z,2.50
2018-02-05T08:27:18.921Z,2.50
2018-02-05T08:28:18.936Z,2.54
2018-02-05T08:29:18.959Z,2.47
2018-02-05T08:30:18.973Z,2.50
2018-02-05T08:31:18.988Z,2.52
2018-02-05T08:32:19.006Z,2.57
2018-02-05T08:33:19.026Z,2.47
2018-02-05T08:34:19.042Z,2.52
2018-02-05T08:35:19.073Z,2.59
2018-02-05T08:36:19.080Z,2.47
2018-02-05T08:37:19.102Z,2.40
2018-02-05T08:38:19.123Z,2.50
2018-02-05T08:39:19.138Z,2.46
2018-02-05T08:40:19.158Z,2.55
2018-02-05T08:41:19.178Z,2.50
2018-02-05T08:42:19.203Z,2.54
2018-02-05T08:43:19.218Z,2.61
2018-02-05T08:44:19.244Z,2.58
2018-02-05T08:45:19.265Z,2.59
2018-02-05T08:46:19.299Z,2.61
2018-02-05T08:47:19.296Z,2.61
2018-02-05T08:48:19.321Z,2.52
2018-02-05T08:49:19.371Z,2.62
2018-02-05T08:50:19.357Z,2.69
2018-02-05T08:51:19.372Z,2.80
2018-02-05T08:52:19.403Z,2.68
2018-02-05T08:53:19.413Z,2.76
2018-02-05T08:54:19.429Z,2.72
2018-02-05T08:55:19.449Z,2.70
2018-02-05T08:56:19.467Z,2.73
2018-02-05T08:57:19.486Z,2.75
2018-02-05T08:58:19.512Z,2.70
2018-02-05T08:59:19.529Z,2.70
2018-02-05T09:00:19.570Z,2.72
2018-02-05T09:01:19.574Z,2.72
2018-02-05T09:02:19.597Z,2.61
2018-02-05T09:03:19.603Z,2.46
2018-02-05T09:04:19.621Z,2.54
2018-02-05T09:05:19.645Z,2.52
2018-02-05T09:06:19.663Z,2.62
2018-02-05T09:07:19.703Z,2.55
2018-02-05T09:08:19.711Z,2.64
2018-02-05T09:09:19.721Z,2.61
2018-02-05T09:10:19.747Z,2.55
2018-02-05T09:11:19.763Z,2.51
2018-02-05T09:12:19.783Z,2.55
2018-02-05T09:13:19.799Z,2.54
2018-02-05T09:14:19.817Z,2.61
2018-02-05T09:15:19.834Z,2.61
2018-02-05T09:16:19.859Z,2.62
2018-02-05T09:17:19.884Z,2.52
2018-02-05T09:18:19.907Z,2.58
2018-02-05T09:19:19.981Z,2.58
2018-02-05T09:20:19.953Z,2.64
2018-02-05T09:21:19.983Z,2.59
2018-02-05T09:22:19.973Z,2.52
2018-02-05T09:23:19.992Z,2.44
2018-02-05T09:24:20.026Z,2.55
2018-02-05T09:25:20.031Z,2.51
2018-02-05T09:26:20.048Z,2.54
2018-02-05T09:27:20.078Z,2.64
2018-02-05T09:28:20.088Z,2.62
2018-02-05T09:29:20.118Z,2.62
2018-02-05T09:30:20.127Z,2.54
2018-02-05T09:31:20.148Z,2.51
2018-02-05T09:32:20.177Z,2.51
2018-02-05T09:33:20.198Z,2.57
2018-02-05T09:34:20.208Z,2.58
2018-02-05T09:35:20.240Z,2.62
2018-02-05T09:36:20.245Z,2.62
2018-02-05T09:37:20.269Z,2.62
2018-02-05T09:38:20.282Z,2.57
2018-02-05T09:39:20.304Z,2.59
2018-02-05T09:40:20.328Z,2.59
2018-02-05T09:41:20.342Z,2.64
2018-02-05T09:42:20.363Z,2.54
2018-02-05T09:43:20.389Z,2.52
2018-02-05T09:44:20.399Z,2.51
2018-02-05T09:45:20.434Z,2.54
2018-02-05T09:46:20.439Z,2.41
2018-02-05T09:47:20.459Z,2.43
2018-02-05T09:48:20.483Z,2.46
2018-02-05T09:49:20.507Z,2.37
2018-02-05T09:50:20.533Z,2.37
2018-02-05T09:51:20.537Z,2.51
2018-02-05T09:52:20.556Z,2.40
2018-02-05T09:53:20.577Z,2.44
2018-02-05T09:54:20.597Z,2.41
2018-02-05T09:55:20.616Z,2.41
2018-02-05T09:56:20.801Z,2.40
2018-02-05T09:57:20.649Z,2.40
2018-02-05T09:58:20.679Z,2.44
2018-02-05T09:59:20.687Z,2.51
2018-02-05T10:00:20.717Z,2.50
2018-02-05T10:01:20.731Z,2.46
2018-02-05T10:02:20.844Z,2.44
2018-02-05T10:03:20.766Z,2.47
2018-02-05T10:04:20.786Z,2.40
2018-02-05T10:05:20.810Z,2.40
2018-02-05T10:06:20.833Z,2.51
2018-02-05T10:07:20.844Z,2.51
2018-02-05T10:08:20.872Z,2.44
2018-02-05T10:09:20.896Z,2.43
2018-02-05T10:10:20.901Z,2.40
2018-02-05T10:11:20.945Z,2.47
2018-02-05T10:12:20.949Z,2.51
2018-02-05T10:13:20.960Z,2.51
2018-02-05T10:14:21.011Z,2.41
2018-02-05T10:15:21.007Z,2.52
2018-02-05T10:16:21.019Z,2.47
2018-02-05T10:17:21.045Z,2.47
2018-02-05T10:18:21.058Z,2.52
2018-02-05T10:19:21.082Z,2.61
2018-02-05T10:20:21.098Z,2.68
2018-02-05T10:21:21.112Z,2.77
2018-02-05T10:22:21.129Z,2.69
2018-02-05T10:23:21.157Z,2.76
2018-02-05T10:24:21.178Z,2.69
2018-02-05T10:25:21.222Z,2.75
2018-02-05T10:26:21.211Z,2.80
2018-02-05T10:27:21.240Z,2.91
2018-02-05T10:28:21.258Z,3.03
2018-02-05T10:29:21.276Z,3.06
2018-02-05T10:30:21.306Z,3.19
2018-02-05T10:31:21.337Z,3.16
2018-02-05T10:32:21.327Z,3.31
2018-02-05T10:33:21.348Z,3.53
2018-02-05T10:34:21.363Z,3.67
2018-02-05T10:35:21.386Z,3.66
2018-02-05T10:36:21.407Z,3.58
2018-02-05T10:37:21.425Z,3.63
2018-02-05T10:38:21.458Z,3.68
2018-02-05T10:39:21.467Z,3.53
2018-02-05T10:40:21.485Z,3.33
2018-02-05T10:41:21.509Z,3.50
2018-02-05T10:42:21.525Z,3.41
2018-02-05T10:43:21.547Z,4.53
2018-02-05T10:44:21.563Z,5.18
2018-02-05T10:45:21.592Z,5.44
2018-02-05T10:46:21.628Z,5.01
2018-02-05T10:47:21.633Z,5.47
2018-02-05T10:48:21.657Z,5.83
2018-02-05T10:49:21.668Z,6.34
2018-02-05T10:50:21.697Z,6.67
2018-02-05T10:51:21.717Z,6.89
2018-02-05T10:52:21.736Z,6.86
2018-02-05T10:53:21.760Z,6.92
2018-02-05T10:54:21.785Z,7.08
2018-02-05T10:55:21.806Z,7.32
2018-02-05T10:56:21.849Z,7.56
2018-02-05T10:57:21.859Z,8.03
2018-02-05T10:58:21.890Z,8.42
2018-02-05T10:59:21.918Z,8.72
2018-02-05T11:00:21.936Z,9.00
2018-02-05T11:01:21.970Z,9.18
2018-02-05T11:02:21.993Z,9.03
2018-02-05T11:03:22.025Z,9.30
2018-02-05T11:04:22.046Z,9.47
2018-02-05T11:05:22.192Z,9.72
2018-02-05T11:06:22.203Z,9.63
2018-02-05T11:07:22.122Z,9.45
2018-02-05T11:08:22.190Z,9.36
2018-02-05T11:09:22.190Z,9.33
2018-02-05T11:10:22.225Z,8.96
2018-02-05T11:11:22.237Z,8.89
2018-02-05T11:12:22.297Z,8.75
2018-02-05T11:13:22.293Z,8.34
2018-02-05T11:14:22.324Z,8.13
2018-02-05T11:15:22.349Z,7.98
2018-02-05T11:16:22.511Z,7.84
2018-02-05T11:17:22.426Z,7.85
2018-02-05T11:18:22.453Z,7.80
2018-02-05T11:19:22.457Z,7.58
2018-02-05T11:20:22.495Z,7.81
2018-02-05T11:22:22.549Z,8.16
2018-02-05T11:23:22.581Z,8.50
2018-02-05T11:25:22.648Z,9.55
2018-02-05T11:26:22.653Z,9.62
2018-02-05T11:27:22.689Z,9.52
2018-02-05T11:29:23.075Z,9.40
2018-02-05T11:30:22.824Z,9.92
2018-02-05T11:32:47.714Z,9.85
2018-02-05T11:33:47.673Z,9.99
2018-02-05T11:34:47.740Z,10.10
2018-02-05T11:36:08.903Z,10.86
2018-02-05T11:36:47.774Z,11.49
2018-02-05T11:37:47.802Z,11.45
2018-02-05T11:38:47.816Z,11.34
2018-02-05T11:51:25.376Z,8.97
2018-02-05T11:52:46.632Z,9.63
2018-02-05T11:53:25.664Z,9.74
2018-02-05T11:54:25.430Z,9.81
2018-02-05T11:55:25.462Z,9.80
2018-02-05T11:56:25.570Z,10.15
2018-02-05T11:57:25.536Z,10.53
2018-02-05T11:58:25.536Z,10.75
2018-02-05T11:59:25.530Z,10.49
2018-02-05T12:00:25.567Z,10.95
2018-02-05T12:01:25.597Z,11.73
2018-02-05T12:02:25.614Z,12.08
2018-02-05T12:03:25.643Z,12.45
2018-02-05T12:04:25.668Z,12.61
2018-02-05T12:05:25.701Z,12.48
2018-02-05T12:06:25.760Z,12.36
2018-02-05T12:07:25.806Z,11.95
2018-02-05T12:08:25.805Z,11.62
2018-02-05T12:09:25.808Z,10.86
2018-02-05T12:10:25.832Z,10.64
2018-02-05T12:11:25.862Z,11.08
2018-02-05T12:12:25.887Z,10.65
2018-02-05T12:13:25.916Z,11.62
2018-02-05T12:14:25.946Z,12.02
2018-02-05T12:15:25.980Z,11.80
2018-02-05T12:16:26.008Z,12.33
2018-02-05T12:17:26.031Z,12.75
2018-02-05T12:18:26.057Z,12.62
2018-02-05T12:19:26.098Z,13.01
2018-02-05T12:20:26.121Z,12.95
2018-02-05T12:21:26.159Z,12.35
2018-02-05T12:22:26.180Z,12.35
2018-02-05T12:23:26.210Z,12.75
2018-02-05T12:24:26.235Z,12.73
2018-02-05T12:25:26.259Z,12.88
2018-02-05T12:26:26.302Z,13.55
2018-02-05T12:27:26.318Z,13.64
2018-02-05T12:28:26.376Z,12.76
2018-02-05T12:29:26.571Z,11.73
2018-02-05T12:30:26.412Z,10.69
2018-02-05T12:31:26.941Z,10.84
2018-02-05T12:32:26.690Z,11.78
2018-02-05T12:33:26.492Z,12.91
2018-02-05T12:34:26.622Z,13.45
2018-02-05T12:35:26.603Z,12.66
2018-02-05T12:36:26.579Z,11.37
2018-02-05T12:37:26.670Z,10.59
2018-02-05T12:38:26.747Z,9.99
2018-02-05T12:39:26.672Z,9.37
2018-02-05T12:40:26.700Z,8.99
2018-02-05T12:41:26.752Z,8.68
2018-02-05T12:42:26.784Z,8.42
2018-02-05T12:43:26.794Z,7.93
2018-02-05T12:44:26.853Z,7.72
2018-02-05T12:45:26.849Z,7.39
2018-02-05T12:46:26.900Z,7.21
2018-02-05T12:47:26.913Z,6.89
2018-02-05T12:48:26.961Z,6.92
2018-02-05T12:49:26.928Z,6.65
2018-02-05T12:50:26.973Z,6.50
2018-02-05T12:51:26.985Z,6.32
2018-02-05T12:52:27.143Z,5.95
2018-02-05T12:53:27.061Z,5.83
2018-02-05T12:54:27.073Z,5.61
2018-02-05T12:55:27.097Z,5.62
2018-02-05T12:56:27.135Z,5.61
2018-02-05T12:57:27.244Z,5.62
2018-02-05T12:58:27.301Z,5.47
2018-02-05T12:59:27.228Z,5.26
2018-02-05T13:00:27.435Z,5.31
2018-02-05T13:01:27.260Z,5.31
2018-02-05T13:02:27.253Z,5.10
2018-02-05T13:03:27.295Z,5.12
2018-02-05T13:04:27.335Z,4.97
2018-02-05T13:05:27.350Z,4.98
2018-02-05T13:06:27.340Z,4.94
2018-02-05T13:07:27.485Z,4.97
2018-02-05T13:08:27.393Z,4.98
2018-02-05T13:09:27.424Z,4.92
2018-02-05T13:10:27.542Z,4.89
2018-02-05T13:11:27.500Z,4.84
2018-02-05T13:12:27.501Z,4.84
2018-02-05T13:13:27.542Z,4.89
2018-02-05T13:14:27.536Z,4.86
2018-02-05T13:15:27.589Z,4.71
2018-02-05T13:16:27.609Z,4.66
2018-02-05T13:17:27.587Z,4.66
2018-02-05T13:18:27.856Z,4.67
2018-02-05T13:19:27.648Z,4.68
2018-02-05T13:20:28.291Z,4.78
2018-02-05T13:21:27.718Z,4.66
2018-02-05T13:22:27.728Z,4.64
2018-02-05T13:23:27.895Z,4.60
2018-02-05T13:24:27.809Z,4.34
2018-02-05T13:25:27.865Z,4.61
2018-02-05T13:26:27.793Z,4.63
2018-02-05T13:27:27.875Z,4.82
2018-02-05T13:28:27.878Z,4.83
2018-02-05T13:29:27.882Z,4.76
2018-02-05T13:30:28.082Z,4.84
2018-02-05T13:31:27.927Z,4.84
2018-02-05T13:32:27.937Z,4.74